Friday, February 23, 2018, 7:57 PM GMT
Back to Local

CXKT, Kentville , N. S.

Location: , , Canada Lat: 45.067
Local Time: 7:57 PM GMT (19:57 GMT) Lon: -64.483
Time Zone: GMT Elev: 160 ft

Show me the last for .
Show Decoded

2018-02-23 19:00 METAR CXKT 231900Z AUTO 28002KT M00/M16 RMK AO1 SLP345 T10011159 58039 =
2018-02-23 18:00 METAR CXKT 231800Z AUTO 32003KT M01/M16 RMK AO1 SOG 00 8036 SLP358 T10101155
                 50004 =
2018-02-23 17:00 METAR CXKT 231700Z AUTO 23003KT M02/M16 RMK AO1 SOG 00 8022 SLP374 T10211155
                 50004 =
2018-02-23 16:00 METAR CXKT 231600Z AUTO 29004KT M03/M15 RMK AO1 SOG 00 8016 SLP385 T10341150
                 50004 =
2018-02-23 15:00 METAR CXKT 231500Z AUTO 27004KT M04/M15 RMK AO1 SOG 00 8003 SLP395 T10431152
                 50004 =
2018-02-23 14:00 METAR CXKT 231400Z AUTO 35005KT M05/M13 RMK AO1 SOG 00 0001 SLP396 T10491127
                 50004 =
2018-02-23 13:00 METAR CXKT 231300Z AUTO 33004KT M06/M14 RMK AO1 4PAST HR SOG 00 3006 SLP401
                 P0002 T10581136 50004 =
2018-02-23 12:00 METAR CXKT 231200Z AUTO 34002KT M07/M14 RMK AO1 SOG 00 5001 SLP398 T10731137
                 50006 =
2018-02-23 11:00 METAR CXKT 231100Z AUTO 01002KT M08/M14 RMK AO1 SOG 00 1004 SLP395 T10801140
                 50006 =
2018-02-23 10:00 METAR CXKT 231000Z AUTO 01004KT M07/M14 RMK AO1 SOG 00 0006 SLP395 T10721143
                 50006 =
2018-02-23 09:00 METAR CXKT 230900Z AUTO 02005KT M07/M15 RMK AO1 SOG 00 1020 SLP399 T10691147
                 50006 =
2018-02-23 08:00 METAR CXKT 230800Z AUTO 35006KT M06/M14 RMK AO1 SOG 00 1021 SLP391 T10621141
                 50006 =
2018-02-23 07:00 METAR CXKT 230700Z AUTO 34008G15KT M05/M14 RMK AO1 6PAST HR SOG 00 3024 SLP389
                 P0002 T10521140 50006 =
2018-02-23 06:00 METAR CXKT 230600Z AUTO 32005KT M05/M12 RMK AO1 3PAST HR SOG 00 3018 P0001
                 T10481122 50003 =
2018-02-23 05:00 METAR CXKT 230500Z AUTO 30003KT M05/M11 RMK AO1 SOG 00 3005 T10461113 =
2018-02-23 04:00 METAR CXKT 230400Z AUTO 30005KT M04/M11 RMK AO1 SOG 00 1005 T10381113 =
2018-02-23 03:00 METAR CXKT 230300Z AUTO 29004KT M03/M11 RMK AO1 SOG 00 0003 T10321112 =
2018-02-23 02:00 METAR CXKT 230200Z AUTO 29006KT M02/M11 RMK AO1 SOG 00 1013 T10241110 =
2018-02-23 01:00 METAR CXKT 230100Z AUTO 29004KT M02/M10 RMK AO1 SOG 00 1012 T10181102 =
2018-02-23 00:00 METAR CXKT 230000Z AUTO 27006KT M01/M10 RMK AO1 SOG 00 3014 T10141098 =
2018-02-22 23:00 METAR CXKT 222300Z AUTO 26006KT M01/M10 RMK AO1 SOG 00 3010 T10101096 =
2018-02-22 22:00 METAR CXKT 222200Z AUTO 26006KT M01/M10 RMK AO1 SOG 00 3009 T10111098 =
2018-02-22 21:00 METAR CXKT 222100Z AUTO 28008KT M01/M10 RMK AO1 SOG 00 T10101102 =
2018-02-22 20:00 METAR CXKT 222000Z AUTO 28005KT M01/M10 RMK AO1 SOG 00 T10051102 =

Support USWX by starting your Amazon purchase here.